Terminal Aerodrome Forecast
Issued by NWS

Home | Current Version | Previous Version | Graphics & Text | Print | Product List | Glossary On
Versions: 1 2 3 4 5 6 7 8 9 10 11 12 13 14 15 16 17 18 19 20 21 22 23 24 25 26 27 28 29 30 31 32 33 34 35 36 37 38 39 40 41 42 43 44 45 46 47 48 49 50
000
FTUS43 KLOT 290500 RRA
TAFGYY
TAF
KGYY 290543Z 2906/3006 12004KT P6SM -RA SCT050 OVC120
     FM291200 17008KT P6SM VCSH BKN050 OVC080
     FM291500 19008KT P6SM SCT050 BKN100
     FM291800 19013G20KT P6SM VCSH SCT060 BKN150 PROB30 2919/2923
      5SM TSRA BR BKN050CB
     FM300200 18010KT P6SM BKN050 OVC100=

USA.gov is the U.S. government's official web portal to all federal, state and local government web resources and services.